sensor_id;sensor_type;location;lat;lon;timestamp;temperature;humidity
22742;DHT22;11538;48.884;8.696;2023-03-02T00:07:11;1.80;99.90
22742;DHT22;11538;48.884;8.696;2023-03-02T00:09:42;1.70;99.90
22742;DHT22;11538;48.884;8.696;2023-03-02T00:12:10;1.80;99.90
22742;DHT22;11538;48.884;8.696;2023-03-02T00:14:39;1.70;99.90
22742;DHT22;11538;48.884;8.696;2023-03-02T00:17:06;1.70;99.90
22742;DHT22;11538;48.884;8.696;2023-03-02T00:19:33;1.70;99.90
22742;DHT22;11538;48.884;8.696;2023-03-02T00:22:02;1.70;99.90
22742;DHT22;11538;48.884;8.696;2023-03-02T00:24:29;1.70;99.90
22742;DHT22;11538;48.884;8.696;2023-03-02T00:26:56;1.60;99.90
22742;DHT22;11538;48.884;8.696;2023-03-02T00:29:23;1.70;99.90
22742;DHT22;11538;48.884;8.696;2023-03-02T00:31:50;1.70;99.90
22742;DHT22;11538;48.884;8.696;2023-03-02T00:34:17;1.70;99.90
22742;DHT22;11538;48.884;8.696;2023-03-02T00:36:45;1.60;99.90
22742;DHT22;11538;48.884;8.696;2023-03-02T00:39:15;1.60;99.90
22742;DHT22;11538;48.884;8.696;2023-03-02T00:41:49;1.60;99.90
22742;DHT22;11538;48.884;8.696;2023-03-02T00:44:16;1.60;99.90
22742;DHT22;11538;48.884;8.696;2023-03-02T00:46:43;1.60;99.90
22742;DHT22;11538;48.884;8.696;2023-03-02T00:49:11;1.60;99.90
22742;DHT22;11538;48.884;8.696;2023-03-02T00:51:38;1.60;99.90
22742;DHT22;11538;48.884;8.696;2023-03-02T00:54:05;1.60;99.90
22742;DHT22;11538;48.884;8.696;2023-03-02T00:56:33;1.60;99.90
22742;DHT22;11538;48.884;8.696;2023-03-02T00:59:05;1.60;99.90
22742;DHT22;11538;48.884;8.696;2023-03-02T01:01:43;1.60;99.90
22742;DHT22;11538;48.884;8.696;2023-03-02T01:04:10;1.60;99.90
22742;DHT22;11538;48.884;8.696;2023-03-02T01:06:37;1.60;99.90
22742;DHT22;11538;48.884;8.696;2023-03-02T01:09:12;1.60;99.90
22742;DHT22;11538;48.884;8.696;2023-03-02T01:11:39;1.60;99.90
22742;DHT22;11538;48.884;8.696;2023-03-02T01:14:06;1.60;99.90
22742;DHT22;11538;48.884;8.696;2023-03-02T01:16:33;1.60;99.90
22742;DHT22;11538;48.884;8.696;2023-03-02T01:19:00;1.60;99.90
22742;DHT22;11538;48.884;8.696;2023-03-02T01:21:27;1.50;99.90
22742;DHT22;11538;48.884;8.696;2023-03-02T01:23:54;1.60;99.90
22742;DHT22;11538;48.884;8.696;2023-03-02T01:26:21;1.50;99.90
22742;DHT22;11538;48.884;8.696;2023-03-02T01:28:48;1.40;99.90
22742;DHT22;11538;48.884;8.696;2023-03-02T01:31:16;1.40;99.90
22742;DHT22;11538;48.884;8.696;2023-03-02T01:33:43;1.40;99.90
22742;DHT22;11538;48.884;8.696;2023-03-02T01:36:10;1.40;99.90
22742;DHT22;11538;48.884;8.696;2023-03-02T01:38:36;1.40;99.90
22742;DHT22;11538;48.884;8.696;2023-03-02T01:45:49;1.40;99.90
22742;DHT22;11538;48.884;8.696;2023-03-02T01:48:30;1.40;99.90
22742;DHT22;11538;48.884;8.696;2023-03-02T01:51:01;1.40;99.90
22742;DHT22;11538;48.884;8.696;2023-03-02T01:53:33;1.30;99.90
22742;DHT22;11538;48.884;8.696;2023-03-02T01:56:05;1.30;99.90
22742;DHT22;11538;48.884;8.696;2023-03-02T01:58:35;1.30;99.90
22742;DHT22;11538;48.884;8.696;2023-03-02T02:01:03;1.30;99.90
22742;DHT22;11538;48.884;8.696;2023-03-02T02:03:30;1.30;99.90
22742;DHT22;11538;48.884;8.696;2023-03-02T02:08:57;1.30;99.90
22742;DHT22;11538;48.884;8.696;2023-03-02T02:11:26;1.30;99.90
22742;DHT22;11538;48.884;8.696;2023-03-02T02:13:57;1.30;99.90
22742;DHT22;11538;48.884;8.696;2023-03-02T02:16:25;1.30;99.90
22742;DHT22;11538;48.884;8.696;2023-03-02T02:18:54;1.30;99.90
22742;DHT22;11538;48.884;8.696;2023-03-02T02:21:23;1.30;99.90
22742;DHT22;11538;48.884;8.696;2023-03-02T02:24:00;1.30;99.90
22742;DHT22;11538;48.884;8.696;2023-03-02T02:26:45;1.30;99.90
22742;DHT22;11538;48.884;8.696;2023-03-02T02:29:37;1.30;99.90
22742;DHT22;11538;48.884;8.696;2023-03-02T02:32:23;1.30;99.90
22742;DHT22;11538;48.884;8.696;2023-03-02T02:35:05;1.20;99.90
22742;DHT22;11538;48.884;8.696;2023-03-02T02:38:02;1.20;99.90
22742;DHT22;11538;48.884;8.696;2023-03-02T02:40:51;1.20;99.90
22742;DHT22;11538;48.884;8.696;2023-03-02T02:43:24;1.20;99.90
22742;DHT22;11538;48.884;8.696;2023-03-02T02:45:57;1.10;99.90
22742;DHT22;11538;48.884;8.696;2023-03-02T02:48:26;1.20;99.90
22742;DHT22;11538;48.884;8.696;2023-03-02T02:50:57;1.10;99.90
22742;DHT22;11538;48.884;8.696;2023-03-02T02:56:07;1.10;99.90
22742;DHT22;11538;48.884;8.696;2023-03-02T02:58:48;1.10;99.90
22742;DHT22;11538;48.884;8.696;2023-03-02T03:01:20;1.10;99.90
22742;DHT22;11538;48.884;8.696;2023-03-02T03:03:55;1.10;99.90
22742;DHT22;11538;48.884;8.696;2023-03-02T03:06:29;1.10;99.90
22742;DHT22;11538;48.884;8.696;2023-03-02T03:09:10;1.10;99.90
22742;DHT22;11538;48.884;8.696;2023-03-02T03:11:40;1.10;99.90
22742;DHT22;11538;48.884;8.696;2023-03-02T03:14:21;1.10;99.90
22742;DHT22;11538;48.884;8.696;2023-03-02T03:16:54;1.10;99.90
22742;DHT22;11538;48.884;8.696;2023-03-02T03:19:24;1.10;99.90
22742;DHT22;11538;48.884;8.696;2023-03-02T03:21:56;1.10;99.90
22742;DHT22;11538;48.884;8.696;2023-03-02T03:24:26;1.10;99.90
22742;DHT22;11538;48.884;8.696;2023-03-02T03:26:55;1.10;99.90
22742;DHT22;11538;48.884;8.696;2023-03-02T03:29:24;1.10;99.90
22742;DHT22;11538;48.884;8.696;2023-03-02T03:31:55;1.10;99.90
22742;DHT22;11538;48.884;8.696;2023-03-02T03:34:23;1.10;99.90
22742;DHT22;11538;48.884;8.696;2023-03-02T03:36:51;1.10;99.90
22742;DHT22;11538;48.884;8.696;2023-03-02T03:39:18;1.10;99.90
22742;DHT22;11538;48.884;8.696;2023-03-02T03:41:45;1.10;99.90
22742;DHT22;11538;48.884;8.696;2023-03-02T03:44:12;1.10;99.90
22742;DHT22;11538;48.884;8.696;2023-03-02T03:46:39;1.10;99.90
22742;DHT22;11538;48.884;8.696;2023-03-02T03:49:06;1.10;99.90
22742;DHT22;11538;48.884;8.696;2023-03-02T03:51:33;1.10;99.90
22742;DHT22;11538;48.884;8.696;2023-03-02T03:54:06;1.10;99.90
22742;DHT22;11538;48.884;8.696;2023-03-02T03:56:37;1.10;99.90
22742;DHT22;11538;48.884;8.696;2023-03-02T03:59:08;1.10;99.90
22742;DHT22;11538;48.884;8.696;2023-03-02T04:01:50;1.10;99.90
22742;DHT22;11538;48.884;8.696;2023-03-02T04:04:23;1.10;99.90
22742;DHT22;11538;48.884;8.696;2023-03-02T04:06:53;1.10;99.90
22742;DHT22;11538;48.884;8.696;2023-03-02T04:09:21;1.10;99.90
22742;DHT22;11538;48.884;8.696;2023-03-02T04:11:51;1.10;99.90
22742;DHT22;11538;48.884;8.696;2023-03-02T04:14:22;1.10;99.90
22742;DHT22;11538;48.884;8.696;2023-03-02T04:16:50;1.00;99.90
22742;DHT22;11538;48.884;8.696;2023-03-02T04:19:18;1.00;99.90
22742;DHT22;11538;48.884;8.696;2023-03-02T04:21:48;1.00;99.90
22742;DHT22;11538;48.884;8.696;2023-03-02T04:24:19;1.00;99.90
22742;DHT22;11538;48.884;8.696;2023-03-02T04:26:48;0.90;99.90
22742;DHT22;11538;48.884;8.696;2023-03-02T04:29:16;0.80;99.90
22742;DHT22;11538;48.884;8.696;2023-03-02T04:31:44;0.80;99.90
22742;DHT22;11538;48.884;8.696;2023-03-02T04:34:11;0.80;99.90
22742;DHT22;11538;48.884;8.696;2023-03-02T04:36:39;0.80;99.90
22742;DHT22;11538;48.884;8.696;2023-03-02T04:39:07;0.80;99.90
22742;DHT22;11538;48.884;8.696;2023-03-02T04:41:35;0.80;99.90
22742;DHT22;11538;48.884;8.696;2023-03-02T04:44:02;0.80;99.90
22742;DHT22;11538;48.884;8.696;2023-03-02T04:46:30;0.80;99.90
22742;DHT22;11538;48.884;8.696;2023-03-02T04:48:59;0.80;99.90
22742;DHT22;11538;48.884;8.696;2023-03-02T04:51:29;0.70;99.90
22742;DHT22;11538;48.884;8.696;2023-03-02T04:54:02;0.70;99.90
22742;DHT22;11538;48.884;8.696;2023-03-02T04:56:36;0.70;99.90
22742;DHT22;11538;48.884;8.696;2023-03-02T04:59:03;0.70;99.90
22742;DHT22;11538;48.884;8.696;2023-03-02T05:01:29;0.70;99.90
22742;DHT22;11538;48.884;8.696;2023-03-02T05:03:56;0.70;99.90
22742;DHT22;11538;48.884;8.696;2023-03-02T05:06:26;0.70;99.90
22742;DHT22;11538;48.884;8.696;2023-03-02T05:08:53;0.60;99.90
22742;DHT22;11538;48.884;8.696;2023-03-02T05:11:21;0.60;99.90
22742;DHT22;11538;48.884;8.696;2023-03-02T05:13:52;0.60;99.90
22742;DHT22;11538;48.884;8.696;2023-03-02T05:16:22;0.60;99.90
22742;DHT22;11538;48.884;8.696;2023-03-02T05:18:50;0.70;99.90
22742;DHT22;11538;48.884;8.696;2023-03-02T05:21:18;0.60;99.90
22742;DHT22;11538;48.884;8.696;2023-03-02T05:23:45;0.60;99.90
22742;DHT22;11538;48.884;8.696;2023-03-02T05:26:13;0.60;99.90
22742;DHT22;11538;48.884;8.696;2023-03-02T05:28:41;0.60;99.90
22742;DHT22;11538;48.884;8.696;2023-03-02T05:31:30;0.60;99.90
22742;DHT22;11538;48.884;8.696;2023-03-02T05:34:02;0.60;99.90
22742;DHT22;11538;48.884;8.696;2023-03-02T05:36:31;0.60;99.90
22742;DHT22;11538;48.884;8.696;2023-03-02T05:38:59;0.50;99.90
22742;DHT22;11538;48.884;8.696;2023-03-02T05:41:26;0.50;99.90
22742;DHT22;11538;48.884;8.696;2023-03-02T05:43:53;0.40;99.90
22742;DHT22;11538;48.884;8.696;2023-03-02T05:46:21;0.40;99.90
22742;DHT22;11538;48.884;8.696;2023-03-02T05:48:49;0.40;99.90
22742;DHT22;11538;48.884;8.696;2023-03-02T05:51:18;0.40;99.90
22742;DHT22;11538;48.884;8.696;2023-03-02T05:53:45;0.40;99.90
22742;DHT22;11538;48.884;8.696;2023-03-02T05:56:12;0.40;99.90
22742;DHT22;11538;48.884;8.696;2023-03-02T05:58:39;0.40;99.90
22742;DHT22;11538;48.884;8.696;2023-03-02T06:01:08;0.40;99.90
22742;DHT22;11538;48.884;8.696;2023-03-02T06:03:41;0.50;99.90
22742;DHT22;11538;48.884;8.696;2023-03-02T06:06:08;0.40;99.90
22742;DHT22;11538;48.884;8.696;2023-03-02T06:08:39;0.40;99.90
22742;DHT22;11538;48.884;8.696;2023-03-02T06:11:07;0.40;99.90
22742;DHT22;11538;48.884;8.696;2023-03-02T06:13:35;0.30;99.90
22742;DHT22;11538;48.884;8.696;2023-03-02T06:16:03;0.30;99.90
22742;DHT22;11538;48.884;8.696;2023-03-02T06:18:32;0.30;99.90
22742;DHT22;11538;48.884;8.696;2023-03-02T06:20:59;0.30;99.90
22742;DHT22;11538;48.884;8.696;2023-03-02T06:23:26;0.30;99.90
22742;DHT22;11538;48.884;8.696;2023-03-02T06:25:53;0.20;99.90
22742;DHT22;11538;48.884;8.696;2023-03-02T06:28:20;0.30;99.90
22742;DHT22;11538;48.884;8.696;2023-03-02T06:30:48;0.30;99.90
22742;DHT22;11538;48.884;8.696;2023-03-02T06:33:16;0.40;99.90
22742;DHT22;11538;48.884;8.696;2023-03-02T06:35:45;0.40;99.90
22742;DHT22;11538;48.884;8.696;2023-03-02T06:38:12;0.40;99.90
22742;DHT22;11538;48.884;8.696;2023-03-02T06:40:39;0.50;99.90
22742;DHT22;11538;48.884;8.696;2023-03-02T06:43:06;0.60;99.90
22742;DHT22;11538;48.884;8.696;2023-03-02T06:45:33;0.60;99.90
22742;DHT22;11538;48.884;8.696;2023-03-02T06:48:01;0.70;99.90
22742;DHT22;11538;48.884;8.696;2023-03-02T06:50:28;0.70;99.90
22742;DHT22;11538;48.884;8.696;2023-03-02T06:52:56;0.80;99.90
22742;DHT22;11538;48.884;8.696;2023-03-02T06:55:24;0.80;99.90
22742;DHT22;11538;48.884;8.696;2023-03-02T06:57:51;0.90;99.90
22742;DHT22;11538;48.884;8.696;2023-03-02T07:00:19;0.90;99.90
22742;DHT22;11538;48.884;8.696;2023-03-02T07:02:55;1.00;99.90
22742;DHT22;11538;48.884;8.696;2023-03-02T07:05:23;1.00;99.90
22742;DHT22;11538;48.884;8.696;2023-03-02T07:07:50;1.10;99.90
22742;DHT22;11538;48.884;8.696;2023-03-02T07:10:18;1.10;99.90
22742;DHT22;11538;48.884;8.696;2023-03-02T07:12:45;1.20;99.90
22742;DHT22;11538;48.884;8.696;2023-03-02T07:15:12;1.20;99.90
22742;DHT22;11538;48.884;8.696;2023-03-02T07:17:41;1.30;99.90
22742;DHT22;11538;48.884;8.696;2023-03-02T07:20:12;1.30;99.90
22742;DHT22;11538;48.884;8.696;2023-03-02T07:22:41;1.30;99.90
22742;DHT22;11538;48.884;8.696;2023-03-02T07:25:10;1.30;99.90
22742;DHT22;11538;48.884;8.696;2023-03-02T07:27:38;1.30;99.90
22742;DHT22;11538;48.884;8.696;2023-03-02T07:30:06;1.40;99.90
22742;DHT22;11538;48.884;8.696;2023-03-02T07:32:34;1.40;99.90
22742;DHT22;11538;48.884;8.696;2023-03-02T07:35:03;1.50;99.90
22742;DHT22;11538;48.884;8.696;2023-03-02T07:37:30;1.50;99.90
22742;DHT22;11538;48.884;8.696;2023-03-02T07:39:57;1.50;99.90
22742;DHT22;11538;48.884;8.696;2023-03-02T07:42:28;1.60;99.90
22742;DHT22;11538;48.884;8.696;2023-03-02T07:44:54;1.60;99.90
22742;DHT22;11538;48.884;8.696;2023-03-02T07:47:21;1.70;99.90
22742;DHT22;11538;48.884;8.696;2023-03-02T07:49:49;1.80;99.90
22742;DHT22;11538;48.884;8.696;2023-03-02T07:52:16;1.80;99.90
22742;DHT22;11538;48.884;8.696;2023-03-02T07:54:43;1.90;99.90
22742;DHT22;11538;48.884;8.696;2023-03-02T07:57:10;2.00;99.90
22742;DHT22;11538;48.884;8.696;2023-03-02T07:59:39;2.10;99.90
22742;DHT22;11538;48.884;8.696;2023-03-02T08:02:06;2.10;99.90
22742;DHT22;11538;48.884;8.696;2023-03-02T08:04:39;2.20;99.90
22742;DHT22;11538;48.884;8.696;2023-03-02T08:07:06;2.30;99.90
22742;DHT22;11538;48.884;8.696;2023-03-02T08:09:33;2.40;99.90
22742;DHT22;11538;48.884;8.696;2023-03-02T08:12:01;2.40;99.90
22742;DHT22;11538;48.884;8.696;2023-03-02T08:14:28;2.50;99.90
22742;DHT22;11538;48.884;8.696;2023-03-02T08:16:57;2.60;99.90
22742;DHT22;11538;48.884;8.696;2023-03-02T08:19:24;2.80;99.90
22742;DHT22;11538;48.884;8.696;2023-03-02T08:21:51;2.90;99.90
22742;DHT22;11538;48.884;8.696;2023-03-02T08:24:19;3.00;99.90
22742;DHT22;11538;48.884;8.696;2023-03-02T08:26:46;3.10;99.90
22742;DHT22;11538;48.884;8.696;2023-03-02T08:29:12;3.20;99.90
22742;DHT22;11538;48.884;8.696;2023-03-02T08:31:39;3.30;99.90
22742;DHT22;11538;48.884;8.696;2023-03-02T08:34:06;3.40;99.90
22742;DHT22;11538;48.884;8.696;2023-03-02T08:36:33;3.50;99.90
22742;DHT22;11538;48.884;8.696;2023-03-02T08:39:01;3.60;99.90
22742;DHT22;11538;48.884;8.696;2023-03-02T08:41:28;3.60;99.90
22742;DHT22;11538;48.884;8.696;2023-03-02T08:43:56;3.70;99.90
22742;DHT22;11538;48.884;8.696;2023-03-02T08:46:24;3.80;99.90
22742;DHT22;11538;48.884;8.696;2023-03-02T08:48:51;3.90;99.90
22742;DHT22;11538;48.884;8.696;2023-03-02T08:51:23;3.90;99.90
22742;DHT22;11538;48.884;8.696;2023-03-02T08:53:52;4.00;99.90
22742;DHT22;11538;48.884;8.696;2023-03-02T08:56:29;4.10;99.90
22742;DHT22;11538;48.884;8.696;2023-03-02T08:59:00;4.20;99.90
22742;DHT22;11538;48.884;8.696;2023-03-02T09:01:32;4.20;99.90
22742;DHT22;11538;48.884;8.696;2023-03-02T09:04:01;4.30;99.90
22742;DHT22;11538;48.884;8.696;2023-03-02T09:06:32;4.40;99.90
22742;DHT22;11538;48.884;8.696;2023-03-02T09:09:03;4.40;99.90
22742;DHT22;11538;48.884;8.696;2023-03-02T09:11:30;4.50;99.90
22742;DHT22;11538;48.884;8.696;2023-03-02T09:13:58;4.60;99.90
22742;DHT22;11538;48.884;8.696;2023-03-02T09:16:25;4.60;99.90
22742;DHT22;11538;48.884;8.696;2023-03-02T09:18:53;4.70;99.90
22742;DHT22;11538;48.884;8.696;2023-03-02T09:21:21;4.80;99.90
22742;DHT22;11538;48.884;8.696;2023-03-02T09:23:47;4.80;99.90
22742;DHT22;11538;48.884;8.696;2023-03-02T09:26:19;4.90;99.90
22742;DHT22;11538;48.884;8.696;2023-03-02T09:28:46;5.00;99.90
22742;DHT22;11538;48.884;8.696;2023-03-02T09:31:13;5.10;99.90
22742;DHT22;11538;48.884;8.696;2023-03-02T09:33:40;5.20;99.90
22742;DHT22;11538;48.884;8.696;2023-03-02T09:36:09;5.20;99.90
22742;DHT22;11538;48.884;8.696;2023-03-02T09:38:38;5.30;99.90
22742;DHT22;11538;48.884;8.696;2023-03-02T09:52:34;5.90;99.90
22742;DHT22;11538;48.884;8.696;2023-03-02T09:55:18;6.00;99.90
22742;DHT22;11538;48.884;8.696;2023-03-02T09:57:49;6.20;99.90
22742;DHT22;11538;48.884;8.696;2023-03-02T10:00:42;6.30;99.90
22742;DHT22;11538;48.884;8.696;2023-03-02T10:03:24;6.40;99.90
22742;DHT22;11538;48.884;8.696;2023-03-02T10:05:59;6.50;99.90
22742;DHT22;11538;48.884;8.696;2023-03-02T10:08:33;6.60;99.90
22742;DHT22;11538;48.884;8.696;2023-03-02T10:14:43;6.70;99.90
22742;DHT22;11538;48.884;8.696;2023-03-02T10:17:42;6.70;99.90
22742;DHT22;11538;48.884;8.696;2023-03-02T10:20:41;6.70;99.90
22742;DHT22;11538;48.884;8.696;2023-03-02T10:26:41;6.80;99.90
22742;DHT22;11538;48.884;8.696;2023-03-02T10:29:34;6.80;99.90
22742;DHT22;11538;48.884;8.696;2023-03-02T10:32:18;6.90;99.90
22742;DHT22;11538;48.884;8.696;2023-03-02T10:34:49;6.90;99.90
22742;DHT22;11538;48.884;8.696;2023-03-02T10:37:23;6.90;99.90
22742;DHT22;11538;48.884;8.696;2023-03-02T10:39:54;6.90;99.90
22742;DHT22;11538;48.884;8.696;2023-03-02T10:50:33;7.10;99.90
22742;DHT22;11538;48.884;8.696;2023-03-02T10:53:01;7.20;99.90
22742;DHT22;11538;48.884;8.696;2023-03-02T10:55:32;7.20;99.90
22742;DHT22;11538;48.884;8.696;2023-03-02T10:58:01;7.30;99.90
22742;DHT22;11538;48.884;8.696;2023-03-02T11:00:43;7.30;99.90
22742;DHT22;11538;48.884;8.696;2023-03-02T11:03:23;7.40;99.90
22742;DHT22;11538;48.884;8.696;2023-03-02T11:05:51;7.40;99.90
22742;DHT22;11538;48.884;8.696;2023-03-02T11:08:23;7.40;99.90
22742;DHT22;11538;48.884;8.696;2023-03-02T11:10:59;7.50;99.90
22742;DHT22;11538;48.884;8.696;2023-03-02T11:13:36;7.50;99.90
22742;DHT22;11538;48.884;8.696;2023-03-02T11:18:56;7.50;99.90
22742;DHT22;11538;48.884;8.696;2023-03-02T11:21:54;7.50;99.90
22742;DHT22;11538;48.884;8.696;2023-03-02T11:24:38;7.50;99.90
22742;DHT22;11538;48.884;8.696;2023-03-02T11:27:18;7.60;99.90
22742;DHT22;11538;48.884;8.696;2023-03-02T11:41:04;8.20;99.90
22742;DHT22;11538;48.884;8.696;2023-03-02T11:43:42;8.50;99.90
22742;DHT22;11538;48.884;8.696;2023-03-02T11:46:18;9.00;99.90
22742;DHT22;11538;48.884;8.696;2023-03-02T11:48:53;9.50;99.90
22742;DHT22;11538;48.884;8.696;2023-03-02T11:51:26;10.00;99.90
22742;DHT22;11538;48.884;8.696;2023-03-02T11:53:59;10.50;99.90
22742;DHT22;11538;48.884;8.696;2023-03-02T11:56:31;10.90;99.90
22742;DHT22;11538;48.884;8.696;2023-03-02T11:59:10;11.40;99.90
22742;DHT22;11538;48.884;8.696;2023-03-02T12:01:45;11.80;99.90
22742;DHT22;11538;48.884;8.696;2023-03-02T12:07:17;12.40;99.90
22742;DHT22;11538;48.884;8.696;2023-03-02T12:10:04;12.70;99.90
22742;DHT22;11538;48.884;8.696;2023-03-02T12:15:46;13.40;99.90
22742;DHT22;11538;48.884;8.696;2023-03-02T12:26:29;13.90;99.90
22742;DHT22;11538;48.884;8.696;2023-03-02T12:29:22;14.00;99.90
22742;DHT22;11538;48.884;8.696;2023-03-02T12:31:54;14.20;99.90
22742;DHT22;11538;48.884;8.696;2023-03-02T12:34:38;14.40;99.90
22742;DHT22;11538;48.884;8.696;2023-03-02T12:37:39;14.60;99.90
22742;DHT22;11538;48.884;8.696;2023-03-02T12:40:44;14.70;99.90
22742;DHT22;11538;48.884;8.696;2023-03-02T12:43:37;14.90;99.90
22742;DHT22;11538;48.884;8.696;2023-03-02T12:46:35;15.00;99.90
22742;DHT22;11538;48.884;8.696;2023-03-02T12:52:01;15.10;99.90
22742;DHT22;11538;48.884;8.696;2023-03-02T12:54:44;15.20;99.90
22742;DHT22;11538;48.884;8.696;2023-03-02T12:57:18;15.30;99.90
22742;DHT22;11538;48.884;8.696;2023-03-02T12:59:53;15.20;99.90
22742;DHT22;11538;48.884;8.696;2023-03-02T13:02:31;15.10;99.90
22742;DHT22;11538;48.884;8.696;2023-03-02T13:05:02;14.80;99.90
22742;DHT22;11538;48.884;8.696;2023-03-02T13:07:40;14.50;99.90
22742;DHT22;11538;48.884;8.696;2023-03-02T13:10:37;14.50;99.90
22742;DHT22;11538;48.884;8.696;2023-03-02T13:13:15;14.80;99.90
22742;DHT22;11538;48.884;8.696;2023-03-02T13:15:55;15.10;99.90
22742;DHT22;11538;48.884;8.696;2023-03-02T13:18:29;15.50;99.90
22742;DHT22;11538;48.884;8.696;2023-03-02T13:21:00;15.80;99.90
22742;DHT22;11538;48.884;8.696;2023-03-02T13:23:31;16.00;99.90
22742;DHT22;11538;48.884;8.696;2023-03-02T13:26:04;16.20;99.90
22742;DHT22;11538;48.884;8.696;2023-03-02T13:28:34;16.30;99.90
22742;DHT22;11538;48.884;8.696;2023-03-02T13:31:05;16.40;99.90
22742;DHT22;11538;48.884;8.696;2023-03-02T13:33:47;16.40;99.90
22742;DHT22;11538;48.884;8.696;2023-03-02T13:36:36;16.50;99.90
22742;DHT22;11538;48.884;8.696;2023-03-02T13:39:14;16.50;99.90
22742;DHT22;11538;48.884;8.696;2023-03-02T13:41:56;16.50;99.90
22742;DHT22;11538;48.884;8.696;2023-03-02T13:44:33;16.60;99.90
22742;DHT22;11538;48.884;8.696;2023-03-02T13:47:01;16.60;99.90
22742;DHT22;11538;48.884;8.696;2023-03-02T13:49:34;16.70;99.90
22742;DHT22;11538;48.884;8.696;2023-03-02T13:52:05;16.70;99.90
22742;DHT22;11538;48.884;8.696;2023-03-02T13:54:40;16.80;99.90
22742;DHT22;11538;48.884;8.696;2023-03-02T13:57:15;16.80;99.90
22742;DHT22;11538;48.884;8.696;2023-03-02T13:59:47;16.90;99.90
22742;DHT22;11538;48.884;8.696;2023-03-02T14:02:26;16.90;99.90
22742;DHT22;11538;48.884;8.696;2023-03-02T14:04:56;17.00;99.90
22742;DHT22;11538;48.884;8.696;2023-03-02T14:07:23;17.00;99.90
22742;DHT22;11538;48.884;8.696;2023-03-02T14:09:50;17.00;99.90
22742;DHT22;11538;48.884;8.696;2023-03-02T14:12:26;16.90;99.90
22742;DHT22;11538;48.884;8.696;2023-03-02T14:14:57;16.90;99.90
22742;DHT22;11538;48.884;8.696;2023-03-02T14:17:27;16.80;99.90
22742;DHT22;11538;48.884;8.696;2023-03-02T14:19:54;16.70;99.90
22742;DHT22;11538;48.884;8.696;2023-03-02T14:22:23;16.50;99.90
22742;DHT22;11538;48.884;8.696;2023-03-02T14:24:52;16.40;99.90
22742;DHT22;11538;48.884;8.696;2023-03-02T14:27:19;16.20;99.90
22742;DHT22;11538;48.884;8.696;2023-03-02T14:29:46;16.00;99.90
22742;DHT22;11538;48.884;8.696;2023-03-02T14:32:14;15.80;99.90
22742;DHT22;11538;48.884;8.696;2023-03-02T14:34:41;15.60;99.90
22742;DHT22;11538;48.884;8.696;2023-03-02T14:37:13;15.40;99.90
22742;DHT22;11538;48.884;8.696;2023-03-02T14:39:48;15.10;99.90
22742;DHT22;11538;48.884;8.696;2023-03-02T14:42:23;14.80;99.90
22742;DHT22;11538;48.884;8.696;2023-03-02T14:44:51;14.40;99.90
22742;DHT22;11538;48.884;8.696;2023-03-02T14:47:18;14.10;99.90
22742;DHT22;11538;48.884;8.696;2023-03-02T14:49:45;13.80;99.90
22742;DHT22;11538;48.884;8.696;2023-03-02T14:52:32;13.50;99.90
22742;DHT22;11538;48.884;8.696;2023-03-02T14:55:27;13.20;99.90
22742;DHT22;11538;48.884;8.696;2023-03-02T14:57:57;13.00;99.90
22742;DHT22;11538;48.884;8.696;2023-03-02T15:00:26;12.80;99.90
22742;DHT22;11538;48.884;8.696;2023-03-02T15:02:53;12.60;99.90
22742;DHT22;11538;48.884;8.696;2023-03-02T15:05:21;12.40;99.90
22742;DHT22;11538;48.884;8.696;2023-03-02T15:07:48;12.20;99.90
22742;DHT22;11538;48.884;8.696;2023-03-02T15:10:19;12.10;99.90
22742;DHT22;11538;48.884;8.696;2023-03-02T15:12:48;11.90;99.90
22742;DHT22;11538;48.884;8.696;2023-03-02T15:15:16;11.80;99.90
22742;DHT22;11538;48.884;8.696;2023-03-02T15:17:43;11.70;99.90
22742;DHT22;11538;48.884;8.696;2023-03-02T15:20:15;11.60;99.90
22742;DHT22;11538;48.884;8.696;2023-03-02T15:22:42;11.50;99.90
22742;DHT22;11538;48.884;8.696;2023-03-02T15:25:10;11.40;99.90
22742;DHT22;11538;48.884;8.696;2023-03-02T15:27:37;11.40;99.90
22742;DHT22;11538;48.884;8.696;2023-03-02T15:30:04;11.30;99.90
22742;DHT22;11538;48.884;8.696;2023-03-02T15:32:32;11.30;99.90
22742;DHT22;11538;48.884;8.696;2023-03-02T15:34:59;11.20;99.90
22742;DHT22;11538;48.884;8.696;2023-03-02T15:37:25;11.10;99.90
22742;DHT22;11538;48.884;8.696;2023-03-02T15:39:57;11.10;99.90
22742;DHT22;11538;48.884;8.696;2023-03-02T15:42:25;11.00;99.90
22742;DHT22;11538;48.884;8.696;2023-03-02T15:44:55;10.90;99.90
22742;DHT22;11538;48.884;8.696;2023-03-02T15:47:22;10.80;99.90
22742;DHT22;11538;48.884;8.696;2023-03-02T15:49:49;10.80;99.90
22742;DHT22;11538;48.884;8.696;2023-03-02T15:52:16;10.70;99.90
22742;DHT22;11538;48.884;8.696;2023-03-02T15:54:45;10.60;99.90
22742;DHT22;11538;48.884;8.696;2023-03-02T15:57:13;10.60;99.90
22742;DHT22;11538;48.884;8.696;2023-03-02T15:59:40;10.50;99.90
22742;DHT22;11538;48.884;8.696;2023-03-02T16:02:08;10.50;99.90
22742;DHT22;11538;48.884;8.696;2023-03-02T16:04:35;10.50;99.90
22742;DHT22;11538;48.884;8.696;2023-03-02T16:07:05;10.40;99.90
22742;DHT22;11538;48.884;8.696;2023-03-02T16:09:32;10.30;99.90
22742;DHT22;11538;48.884;8.696;2023-03-02T16:11:59;10.30;99.90
22742;DHT22;11538;48.884;8.696;2023-03-02T16:14:27;10.20;99.90
22742;DHT22;11538;48.884;8.696;2023-03-02T16:16:54;10.20;99.90
22742;DHT22;11538;48.884;8.696;2023-03-02T16:19:21;10.10;99.90
22742;DHT22;11538;48.884;8.696;2023-03-02T16:21:47;10.10;99.90
22742;DHT22;11538;48.884;8.696;2023-03-02T16:24:15;10.10;99.90
22742;DHT22;11538;48.884;8.696;2023-03-02T16:26:43;10.00;99.90
22742;DHT22;11538;48.884;8.696;2023-03-02T16:29:11;10.00;99.90
22742;DHT22;11538;48.884;8.696;2023-03-02T16:31:39;9.90;99.90
22742;DHT22;11538;48.884;8.696;2023-03-02T16:34:07;9.90;99.90
22742;DHT22;11538;48.884;8.696;2023-03-02T16:36:36;9.90;99.90
22742;DHT22;11538;48.884;8.696;2023-03-02T16:39:05;9.80;99.90
22742;DHT22;11538;48.884;8.696;2023-03-02T16:41:34;9.70;99.90
22742;DHT22;11538;48.884;8.696;2023-03-02T16:44:02;9.70;99.90
22742;DHT22;11538;48.884;8.696;2023-03-02T16:46:30;9.70;99.90
22742;DHT22;11538;48.884;8.696;2023-03-02T16:49:02;9.60;99.90
22742;DHT22;11538;48.884;8.696;2023-03-02T16:51:30;9.60;99.90
22742;DHT22;11538;48.884;8.696;2023-03-02T16:53:58;9.50;99.90
22742;DHT22;11538;48.884;8.696;2023-03-02T16:56:24;9.40;99.90
22742;DHT22;11538;48.884;8.696;2023-03-02T16:58:52;9.30;99.90
22742;DHT22;11538;48.884;8.696;2023-03-02T17:01:21;9.20;99.90
22742;DHT22;11538;48.884;8.696;2023-03-02T17:03:49;9.10;99.90
22742;DHT22;11538;48.884;8.696;2023-03-02T17:06:19;9.00;99.90
22742;DHT22;11538;48.884;8.696;2023-03-02T17:08:48;9.00;99.90
22742;DHT22;11538;48.884;8.696;2023-03-02T17:11:16;8.90;99.90
22742;DHT22;11538;48.884;8.696;2023-03-02T17:13:44;8.80;99.90
22742;DHT22;11538;48.884;8.696;2023-03-02T17:16:11;8.70;99.90
22742;DHT22;11538;48.884;8.696;2023-03-02T17:18:40;8.60;99.90
22742;DHT22;11538;48.884;8.696;2023-03-02T17:21:07;8.50;99.90